createdAt,value
2023-03-22T00:00:38.445Z,0.00
2023-03-22T00:01:38.146Z,0.00
2023-03-22T00:02:38.222Z,0.00
2023-03-22T00:03:38.202Z,0.00
2023-03-22T00:04:38.136Z,0.00
2023-03-22T00:05:38.112Z,0.00
2023-03-22T00:06:38.074Z,0.00
2023-03-22T00:07:38.059Z,0.00
2023-03-22T00:08:38.089Z,0.00
2023-03-22T00:09:38.080Z,0.00
2023-03-22T00:10:38.357Z,0.00
2023-03-22T00:11:38.004Z,0.00
2023-03-22T00:12:37.995Z,0.00
2023-03-22T00:13:37.986Z,0.00
2023-03-22T00:14:38.019Z,0.00
2023-03-22T00:15:37.965Z,0.00
2023-03-22T00:16:37.937Z,0.00
2023-03-22T00:17:37.931Z,0.00
2023-03-22T00:18:37.963Z,0.00
2023-03-22T00:19:37.933Z,0.00
2023-03-22T00:20:38.127Z,0.00
2023-03-22T00:21:37.882Z,0.00
2023-03-22T00:22:37.872Z,0.00
2023-03-22T00:23:37.863Z,0.00
2023-03-22T00:24:37.866Z,0.00
2023-03-22T00:25:37.832Z,0.00
2023-03-22T00:26:37.862Z,0.00
2023-03-22T00:27:37.824Z,0.00
2023-03-22T00:28:37.823Z,0.00
2023-03-22T00:29:37.774Z,0.00
2023-03-22T00:30:38.103Z,0.00
2023-03-22T00:31:37.823Z,0.00
2023-03-22T00:32:37.733Z,0.00
2023-03-22T00:33:37.817Z,0.00
2023-03-22T00:34:37.704Z,0.00
2023-03-22T00:35:37.787Z,0.00
2023-03-22T00:36:37.673Z,0.00
2023-03-22T00:37:37.683Z,0.00
2023-03-22T00:38:45.312Z,0.00
2023-03-22T00:39:38.646Z,0.00
2023-03-22T00:40:37.968Z,0.00
2023-03-22T00:41:37.633Z,0.00
2023-03-22T00:42:37.616Z,0.00
2023-03-22T00:43:37.606Z,0.00
2023-03-22T00:44:37.583Z,0.00
2023-03-22T00:45:37.617Z,0.00
2023-03-22T00:46:37.588Z,0.00
2023-03-22T00:47:37.580Z,0.00
2023-03-22T00:48:37.560Z,0.00
2023-03-22T00:49:37.513Z,0.00
2023-03-22T00:50:37.861Z,0.00
2023-03-22T00:51:37.508Z,0.00
2023-03-22T00:52:37.507Z,0.00
2023-03-22T00:53:37.477Z,0.00
2023-03-22T00:54:37.445Z,0.00
2023-03-22T00:55:37.483Z,0.00
2023-03-22T00:56:37.429Z,0.00
2023-03-22T00:57:37.460Z,0.00
2023-03-22T00:58:37.421Z,0.00
2023-03-22T00:59:37.402Z,0.00
2023-03-22T01:00:37.592Z,0.00
2023-03-22T01:01:37.418Z,0.00
2023-03-22T01:02:37.362Z,0.00
2023-03-22T01:03:37.356Z,0.00
2023-03-22T01:04:37.323Z,0.00
2023-03-22T01:05:37.321Z,0.00
2023-03-22T01:06:37.350Z,0.00
2023-03-22T01:07:37.282Z,0.00
2023-03-22T01:08:37.270Z,0.00
2023-03-22T01:09:37.267Z,0.00
2023-03-22T01:10:37.546Z,0.00
2023-03-22T01:11:37.219Z,0.00
2023-03-22T01:12:37.219Z,0.00
2023-03-22T01:13:37.201Z,0.00
2023-03-22T01:14:37.194Z,0.00
2023-03-22T01:15:37.203Z,0.00
2023-03-22T01:16:37.193Z,0.00
2023-03-22T01:17:37.162Z,0.00
2023-03-22T01:18:37.156Z,0.00
2023-03-22T01:19:37.116Z,0.00
2023-03-22T01:20:37.420Z,0.00
2023-03-22T01:21:37.099Z,0.00
2023-03-22T01:22:37.087Z,0.00
2023-03-22T01:23:37.150Z,0.00
2023-03-22T01:24:37.054Z,0.00
2023-03-22T01:25:37.082Z,0.00
2023-03-22T01:26:37.054Z,0.00
2023-03-22T01:27:37.026Z,0.00
2023-03-22T01:28:37.006Z,0.00
2023-03-22T01:29:37.029Z,0.00
2023-03-22T01:30:37.315Z,0.00
2023-03-22T01:31:37.031Z,0.00
2023-03-22T01:32:37.778Z,0.00
2023-03-22T01:33:36.938Z,0.00
2023-03-22T01:34:36.932Z,0.00
2023-03-22T01:35:36.983Z,0.00
2023-03-22T01:36:36.947Z,0.00
2023-03-22T01:37:36.893Z,0.00
2023-03-22T01:38:36.883Z,0.00
2023-03-22T01:39:36.867Z,0.00
2023-03-22T01:40:36.917Z,0.00
2023-03-22T01:41:36.840Z,0.00
2023-03-22T01:42:36.849Z,0.00
2023-03-22T01:43:36.818Z,0.00
2023-03-22T01:44:36.798Z,0.00
2023-03-22T01:45:36.894Z,0.00
2023-03-22T01:46:36.892Z,0.00
2023-03-22T01:47:36.756Z,0.00
2023-03-22T01:48:36.771Z,0.00
2023-03-22T01:49:36.729Z,0.00
2023-03-22T01:50:37.060Z,0.00
2023-03-22T01:51:36.711Z,0.00
2023-03-22T01:52:36.687Z,0.00
2023-03-22T01:53:36.686Z,0.00
2023-03-22T01:54:36.737Z,0.00
2023-03-22T01:55:36.679Z,0.00
2023-03-22T01:56:36.649Z,0.00
2023-03-22T01:57:36.632Z,0.00
2023-03-22T01:58:36.647Z,0.00
2023-03-22T01:59:36.611Z,0.00
2023-03-22T02:00:37.106Z,0.00
2023-03-22T02:01:36.599Z,0.00
2023-03-22T02:02:36.593Z,0.00
2023-03-22T02:03:36.564Z,0.00
2023-03-22T02:04:36.562Z,0.00
2023-03-22T02:05:36.548Z,0.00
2023-03-22T02:06:36.519Z,0.00
2023-03-22T02:07:36.498Z,0.00
2023-03-22T02:08:36.490Z,0.00
2023-03-22T02:09:36.476Z,0.00
2023-03-22T02:10:36.685Z,0.00
2023-03-22T02:11:36.457Z,0.00
2023-03-22T02:12:36.461Z,0.00
2023-03-22T02:13:36.444Z,0.00
2023-03-22T02:14:36.408Z,0.00
2023-03-22T02:15:36.489Z,0.00
2023-03-22T02:16:36.403Z,0.00
2023-03-22T02:17:36.412Z,0.00
2023-03-22T02:18:36.356Z,0.00
2023-03-22T02:19:36.370Z,0.00
2023-03-22T02:20:36.431Z,0.00
2023-03-22T02:21:36.370Z,0.00
2023-03-22T02:22:36.399Z,0.00
2023-03-22T02:23:36.300Z,0.00
2023-03-22T02:24:36.285Z,0.00
2023-03-22T02:25:36.318Z,0.00
2023-03-22T02:26:36.247Z,0.00
2023-03-22T02:27:36.261Z,0.00
2023-03-22T02:28:36.232Z,0.00
2023-03-22T02:29:36.232Z,0.00
2023-03-22T02:30:36.413Z,0.00
2023-03-22T02:31:36.299Z,0.00
2023-03-22T02:32:36.194Z,0.00
2023-03-22T02:33:36.175Z,0.00
2023-03-22T02:34:36.163Z,0.00
2023-03-22T02:35:36.203Z,0.00
2023-03-22T02:36:36.123Z,0.00
2023-03-22T02:37:36.180Z,0.00
2023-03-22T02:38:36.095Z,0.00
2023-03-22T02:39:36.085Z,0.00
2023-03-22T02:40:36.122Z,0.00
2023-03-22T02:41:36.069Z,0.00
2023-03-22T02:42:36.078Z,0.00
2023-03-22T02:43:36.045Z,0.00
2023-03-22T02:44:36.020Z,0.00
2023-03-22T02:45:36.048Z,0.00
2023-03-22T02:46:36.030Z,0.00
2023-03-22T02:47:35.982Z,0.00
2023-03-22T02:48:35.971Z,0.00
2023-03-22T02:49:35.952Z,0.00
2023-03-22T02:50:35.963Z,0.00
2023-03-22T02:51:35.950Z,0.00
2023-03-22T02:52:35.930Z,0.00
2023-03-22T02:53:35.912Z,0.00
2023-03-22T02:54:35.892Z,0.00
2023-03-22T02:55:35.902Z,0.00
2023-03-22T02:56:35.865Z,0.00
2023-03-22T02:57:35.856Z,0.00
2023-03-22T02:58:35.840Z,0.00
2023-03-22T02:59:35.834Z,0.00
2023-03-22T03:00:35.856Z,0.00
2023-03-22T03:01:35.819Z,0.00
2023-03-22T03:02:35.791Z,0.00
2023-03-22T03:03:35.780Z,0.00
2023-03-22T03:04:35.769Z,0.00
2023-03-22T03:05:35.858Z,0.00
2023-03-22T03:06:35.760Z,0.00
2023-03-22T03:07:35.739Z,0.00
2023-03-22T03:08:35.701Z,0.00
2023-03-22T03:09:35.698Z,0.00
2023-03-22T03:10:35.701Z,0.00
2023-03-22T03:11:35.671Z,0.00
2023-03-22T03:12:35.651Z,0.00
2023-03-22T03:13:35.649Z,0.00
2023-03-22T03:14:35.625Z,0.00
2023-03-22T03:15:35.656Z,0.00
2023-03-22T03:16:35.606Z,0.00
2023-03-22T03:17:35.592Z,0.00
2023-03-22T03:18:35.582Z,0.00
2023-03-22T03:19:35.561Z,0.00
2023-03-22T03:20:35.578Z,0.00
2023-03-22T03:21:35.556Z,0.00
2023-03-22T03:22:35.525Z,0.00
2023-03-22T03:23:35.526Z,0.00
2023-03-22T03:24:35.490Z,0.00
2023-03-22T03:25:35.519Z,0.00
2023-03-22T03:26:35.496Z,0.00
2023-03-22T03:27:35.460Z,0.00
2023-03-22T03:28:35.442Z,0.00
2023-03-22T03:29:35.489Z,0.00
2023-03-22T03:30:35.460Z,0.00
2023-03-22T03:31:35.453Z,0.00
2023-03-22T03:32:35.397Z,0.00
2023-03-22T03:33:35.377Z,0.00
2023-03-22T03:34:35.448Z,0.00
2023-03-22T03:35:35.401Z,0.00
2023-03-22T03:36:35.349Z,0.00
2023-03-22T03:37:35.336Z,0.00
2023-03-22T03:38:35.348Z,0.00
2023-03-22T03:39:35.324Z,0.00
2023-03-22T03:40:35.322Z,0.00
2023-03-22T03:41:35.288Z,0.00
2023-03-22T03:42:35.276Z,0.00
2023-03-22T03:43:35.249Z,0.00
2023-03-22T03:44:35.557Z,0.00
2023-03-22T03:45:35.332Z,0.00
2023-03-22T03:46:35.208Z,0.00
2023-03-22T03:47:35.198Z,0.00
2023-03-22T03:48:35.200Z,0.00
2023-03-22T03:49:35.183Z,0.00
2023-03-22T03:50:35.213Z,0.00
2023-03-22T03:51:35.954Z,0.00
2023-03-22T03:52:35.150Z,0.00
2023-03-22T03:53:35.118Z,0.00
2023-03-22T03:54:35.108Z,0.00
2023-03-22T03:55:35.116Z,0.00
2023-03-22T03:56:35.123Z,0.00
2023-03-22T03:57:35.113Z,0.00
2023-03-22T03:58:35.068Z,0.00
2023-03-22T03:59:35.049Z,0.00
2023-03-22T04:00:35.038Z,0.00
2023-03-22T04:01:35.819Z,0.00
2023-03-22T04:02:35.083Z,0.00
2023-03-22T04:03:35.018Z,0.00
2023-03-22T04:04:35.061Z,0.00
2023-03-22T04:05:34.993Z,0.00
2023-03-22T04:06:35.004Z,0.00
2023-03-22T04:07:34.947Z,0.00
2023-03-22T04:08:34.931Z,0.00
2023-03-22T04:09:34.927Z,0.00
2023-03-22T04:10:34.921Z,0.00
2023-03-22T04:11:34.927Z,0.00
2023-03-22T04:12:34.907Z,0.00
2023-03-22T04:13:34.895Z,0.00
2023-03-22T04:14:34.850Z,0.00
2023-03-22T04:15:34.851Z,0.00
2023-03-22T04:16:34.901Z,0.00
2023-03-22T04:17:34.859Z,0.00
2023-03-22T04:18:34.816Z,0.00
2023-03-22T04:19:34.813Z,0.00
2023-03-22T04:20:34.793Z,0.00
2023-03-22T04:21:34.799Z,0.00
2023-03-22T04:22:34.760Z,0.00
2023-03-22T04:23:34.762Z,0.00
2023-03-22T04:24:34.718Z,0.00
2023-03-22T04:25:34.783Z,0.00
2023-03-22T04:26:34.732Z,0.00
2023-03-22T04:27:34.690Z,0.00
2023-03-22T04:28:34.683Z,0.00
2023-03-22T04:29:34.676Z,0.00
2023-03-22T04:30:34.652Z,0.00
2023-03-22T04:31:34.666Z,0.00
2023-03-22T04:32:34.626Z,0.00
2023-03-22T04:33:35.396Z,0.00
2023-03-22T04:34:34.595Z,0.00
2023-03-22T04:35:34.629Z,0.00
2023-03-22T04:36:34.595Z,0.00
2023-03-22T04:37:34.574Z,0.00
2023-03-22T04:38:34.546Z,0.00
2023-03-22T04:39:34.558Z,0.00
2023-03-22T04:40:34.507Z,0.00
2023-03-22T04:41:34.545Z,0.00
2023-03-22T04:42:34.487Z,0.00
2023-03-22T04:43:34.495Z,0.00
2023-03-22T04:44:34.454Z,0.00
2023-03-22T04:45:34.474Z,0.00
2023-03-22T04:46:34.491Z,0.00
2023-03-22T04:47:34.464Z,0.00
2023-03-22T04:48:34.404Z,0.00
2023-03-22T04:49:34.407Z,0.00
2023-03-22T04:50:34.394Z,0.00
2023-03-22T04:51:34.366Z,0.00
2023-03-22T04:52:34.364Z,0.00
2023-03-22T04:53:34.353Z,0.00
2023-03-22T04:54:34.344Z,0.00
2023-03-22T04:55:34.295Z,0.00
2023-03-22T04:56:34.286Z,0.00
2023-03-22T04:57:34.293Z,0.00
2023-03-22T04:58:34.271Z,0.00
2023-03-22T04:59:34.276Z,0.00
2023-03-22T05:00:34.249Z,0.00
2023-03-22T05:01:34.231Z,0.00
2023-03-22T05:02:34.207Z,0.00
2023-03-22T05:03:34.174Z,0.00
2023-03-22T05:04:34.162Z,0.00
2023-03-22T05:05:34.320Z,0.00
2023-03-22T05:06:34.155Z,0.00
2023-03-22T05:07:34.114Z,0.00
2023-03-22T05:08:34.102Z,0.00
2023-03-22T05:09:34.089Z,0.00
2023-03-22T05:10:34.070Z,0.00
2023-03-22T05:11:34.102Z,0.00
2023-03-22T05:12:34.060Z,0.00
2023-03-22T05:13:34.039Z,0.00
2023-03-22T05:14:34.034Z,0.00
2023-03-22T05:15:34.032Z,0.00
2023-03-22T05:16:34.039Z,0.00
2023-03-22T05:17:33.989Z,0.00
2023-03-22T05:18:33.968Z,0.00
2023-03-22T05:19:33.951Z,0.00
2023-03-22T05:20:33.946Z,0.00
2023-03-22T05:21:33.961Z,0.00
2023-03-22T05:22:33.922Z,0.00
2023-03-22T05:23:33.905Z,0.00
2023-03-22T05:24:33.881Z,0.00
2023-03-22T05:25:33.871Z,0.00
2023-03-22T05:26:33.900Z,0.00
2023-03-22T05:27:33.850Z,0.00
2023-03-22T05:28:33.837Z,5.62
2023-03-22T05:29:33.820Z,5.62
2023-03-22T05:30:33.807Z,5.62
2023-03-22T05:31:33.871Z,5.62
2023-03-22T05:32:33.789Z,5.62
2023-03-22T05:33:33.781Z,5.62
2023-03-22T05:34:33.766Z,5.62
2023-03-22T05:35:33.740Z,5.62
2023-03-22T05:36:37.839Z,5.62
2023-03-22T05:37:33.722Z,5.62
2023-03-22T05:38:33.716Z,5.62
2023-03-22T05:39:33.692Z,11.25
2023-03-22T05:40:33.690Z,11.25
2023-03-22T05:41:36.496Z,11.25
2023-03-22T05:42:33.672Z,11.25
2023-03-22T05:43:33.653Z,11.25
2023-03-22T05:44:33.645Z,11.25
2023-03-22T05:45:33.626Z,11.25
2023-03-22T05:46:33.733Z,11.25
2023-03-22T05:47:33.582Z,16.88
2023-03-22T05:48:33.588Z,16.88
2023-03-22T05:49:34.410Z,16.88
2023-03-22T05:50:33.572Z,16.88
2023-03-22T05:51:33.593Z,16.88
2023-03-22T05:52:33.527Z,16.88
2023-03-22T05:53:33.526Z,16.88
2023-03-22T05:54:33.531Z,16.88
2023-03-22T05:55:33.489Z,22.50
2023-03-22T05:56:33.534Z,22.50
2023-03-22T05:57:33.530Z,22.50
2023-03-22T05:58:33.449Z,22.50
2023-03-22T05:59:33.442Z,22.50
2023-03-22T06:00:33.433Z,22.50
2023-03-22T06:01:33.534Z,28.12
2023-03-22T06:02:33.412Z,28.12
2023-03-22T06:03:33.454Z,28.12
2023-03-22T06:04:33.374Z,28.12
2023-03-22T06:05:33.369Z,28.12
2023-03-22T06:06:33.396Z,33.75
2023-03-22T06:07:33.337Z,33.75
2023-03-22T06:08:33.332Z,33.75
2023-03-22T06:09:33.315Z,33.75
2023-03-22T06:10:33.294Z,39.38
2023-03-22T06:11:33.302Z,39.38
2023-03-22T06:12:33.283Z,39.38
2023-03-22T06:13:33.264Z,39.38
2023-03-22T06:14:33.253Z,45.00
2023-03-22T06:15:33.223Z,45.00
2023-03-22T06:16:33.337Z,45.00
2023-03-22T06:17:33.222Z,50.62
2023-03-22T06:18:33.202Z,50.62
2023-03-22T06:19:33.229Z,50.62
2023-03-22T06:20:33.176Z,50.62
2023-03-22T06:21:33.184Z,50.62
2023-03-22T06:22:33.143Z,50.62
2023-03-22T06:23:33.121Z,50.62
2023-03-22T06:24:33.126Z,50.62
2023-03-22T06:25:33.106Z,56.25
2023-03-22T06:26:33.090Z,56.25
2023-03-22T06:27:33.174Z,56.25
2023-03-22T06:28:33.062Z,56.25
2023-03-22T06:29:33.045Z,56.25
2023-03-22T06:30:33.048Z,56.25
2023-03-22T06:31:33.017Z,56.25
2023-03-22T06:32:33.036Z,56.25
2023-03-22T06:33:32.987Z,61.88
2023-03-22T06:34:32.976Z,61.88
2023-03-22T06:35:33.056Z,67.50
2023-03-22T06:36:32.954Z,67.50
2023-03-22T06:37:32.972Z,67.50
2023-03-22T06:38:32.958Z,73.12
2023-03-22T06:39:32.925Z,73.12
2023-03-22T06:40:32.905Z,73.12
2023-03-22T06:41:32.888Z,78.75
2023-03-22T06:42:32.921Z,84.38
2023-03-22T06:43:32.874Z,84.38
2023-03-22T06:44:32.861Z,90.00
2023-03-22T06:45:32.830Z,95.62
2023-03-22T06:46:32.863Z,95.62
2023-03-22T06:47:32.879Z,101.25
2023-03-22T06:48:32.789Z,101.25
2023-03-22T06:49:32.770Z,101.25
2023-03-22T06:50:32.768Z,101.25
2023-03-22T06:51:33.072Z,106.88
2023-03-22T06:52:32.771Z,106.88
2023-03-22T06:53:32.734Z,112.50
2023-03-22T06:54:37.001Z,112.50
2023-03-22T06:55:36.935Z,112.50
2023-03-22T06:56:32.693Z,112.50
2023-03-22T06:57:32.699Z,112.50
2023-03-22T06:58:33.470Z,112.50
2023-03-22T06:59:32.640Z,112.50
2023-03-22T07:00:32.635Z,118.12
2023-03-22T07:01:32.656Z,118.12
2023-03-22T07:02:32.660Z,118.12
2023-03-22T07:03:32.589Z,118.12
2023-03-22T07:04:32.656Z,123.75
2023-03-22T07:05:32.587Z,123.75
2023-03-22T07:06:32.583Z,123.75
2023-03-22T07:07:32.565Z,123.75
2023-03-22T07:08:32.538Z,123.75
2023-03-22T07:09:32.520Z,129.38
2023-03-22T07:10:32.567Z,129.38
2023-03-22T07:11:32.488Z,135.00
2023-03-22T07:12:32.529Z,135.00
2023-03-22T07:13:32.469Z,135.00
2023-03-22T07:14:33.434Z,135.00
2023-03-22T07:15:32.488Z,135.00
2023-03-22T07:16:32.488Z,129.38
2023-03-22T07:17:32.451Z,129.38
2023-03-22T07:18:32.399Z,129.38
2023-03-22T07:19:32.429Z,129.38
2023-03-22T07:20:33.249Z,123.75
2023-03-22T07:21:32.502Z,123.75
2023-03-22T07:22:32.386Z,123.75
2023-03-22T07:23:32.338Z,118.12
2023-03-22T07:24:32.334Z,118.12
2023-03-22T07:25:32.442Z,118.12
2023-03-22T07:26:32.491Z,123.75
2023-03-22T07:27:32.779Z,123.75
2023-03-22T07:28:32.364Z,123.75
2023-03-22T07:29:32.269Z,129.38
2023-03-22T07:30:32.295Z,129.38
2023-03-22T07:31:32.289Z,135.00
2023-03-22T07:32:32.487Z,135.00
2023-03-22T07:33:32.213Z,135.00
2023-03-22T07:34:32.307Z,140.62
2023-03-22T07:35:32.189Z,140.62
2023-03-22T07:36:32.170Z,146.25
2023-03-22T07:37:32.417Z,146.25
2023-03-22T07:38:32.260Z,151.88
2023-03-22T07:39:32.137Z,151.88
2023-03-22T07:40:32.128Z,151.88
2023-03-22T07:41:32.106Z,151.88
2023-03-22T07:42:32.123Z,151.88
2023-03-22T07:43:34.052Z,151.88
2023-03-22T07:44:33.167Z,151.88
2023-03-22T07:45:32.808Z,151.88
2023-03-22T07:46:32.096Z,157.50
2023-03-22T07:47:40.734Z,163.12
2023-03-22T07:48:33.033Z,174.38
2023-03-22T07:49:32.022Z,174.38
2023-03-22T07:50:32.098Z,174.38
2023-03-22T07:51:32.004Z,174.38
2023-03-22T07:52:31.984Z,180.00
2023-03-22T07:53:32.085Z,180.00
2023-03-22T07:54:34.174Z,174.38
2023-03-22T07:55:31.993Z,174.38
2023-03-22T07:56:31.983Z,174.38
2023-03-22T07:57:31.962Z,174.38
2023-03-22T07:58:31.909Z,168.75
2023-03-22T07:59:33.205Z,163.12
2023-03-22T08:00:31.870Z,163.12
2023-03-22T08:01:31.856Z,157.50
2023-03-22T08:02:32.038Z,157.50
2023-03-22T08:03:31.862Z,151.88
2023-03-22T08:04:31.880Z,157.50
2023-03-22T08:05:31.820Z,157.50
2023-03-22T08:06:32.036Z,151.88
2023-03-22T08:07:31.787Z,151.88
2023-03-22T08:08:32.727Z,151.88
2023-03-22T08:09:31.745Z,146.25
2023-03-22T08:10:31.748Z,146.25
2023-03-22T08:11:31.787Z,146.25
2023-03-22T08:12:31.726Z,146.25
2023-03-22T08:13:31.756Z,146.25
2023-03-22T08:14:37.253Z,151.88
2023-03-22T08:15:31.663Z,157.50
2023-03-22T08:16:31.734Z,157.50
2023-03-22T08:17:31.679Z,151.88
2023-03-22T08:18:31.636Z,157.50
2023-03-22T08:19:31.613Z,151.88
2023-03-22T08:20:31.608Z,140.62
2023-03-22T08:21:32.215Z,123.75
2023-03-22T08:22:31.617Z,118.12
2023-03-22T08:23:41.321Z,112.50
2023-03-22T08:24:33.305Z,112.50
2023-03-22T08:25:31.537Z,118.12
2023-03-22T08:26:31.526Z,118.12
2023-03-22T08:27:31.536Z,118.12
2023-03-22T08:28:31.519Z,129.38
2023-03-22T08:29:31.500Z,135.00
2023-03-22T08:30:31.547Z,140.62
2023-03-22T08:31:31.544Z,146.25
2023-03-22T08:32:31.478Z,151.88
2023-03-22T08:33:31.435Z,157.50
2023-03-22T08:34:31.504Z,163.12
2023-03-22T08:35:31.437Z,163.12
2023-03-22T08:36:31.406Z,163.12
2023-03-22T08:37:32.268Z,168.75
2023-03-22T08:38:31.444Z,168.75
2023-03-22T08:39:31.386Z,174.38
2023-03-22T08:40:31.376Z,174.38
2023-03-22T08:41:31.318Z,174.38
2023-03-22T08:42:31.321Z,174.38
2023-03-22T08:43:31.299Z,168.75
2023-03-22T08:44:31.302Z,168.75
2023-03-22T08:45:31.316Z,168.75
2023-03-22T08:46:31.306Z,168.75
2023-03-22T08:47:31.273Z,168.75
2023-03-22T08:48:31.236Z,168.75
2023-03-22T08:49:31.223Z,168.75
2023-03-22T08:50:31.222Z,163.12
2023-03-22T08:51:31.205Z,157.50
2023-03-22T08:52:31.204Z,151.88
2023-03-22T08:53:31.224Z,151.88
2023-03-22T08:54:31.172Z,151.88
2023-03-22T08:55:31.152Z,151.88
2023-03-22T08:56:31.132Z,151.88
2023-03-22T08:57:31.428Z,146.25
2023-03-22T08:58:31.115Z,146.25
2023-03-22T08:59:31.084Z,140.62
2023-03-22T09:00:45.685Z,140.62
2023-03-22T09:01:32.192Z,140.62
2023-03-22T09:02:31.107Z,146.25
2023-03-22T09:03:31.431Z,140.62
2023-03-22T09:04:31.031Z,140.62
2023-03-22T09:05:31.052Z,135.00
2023-03-22T09:06:31.002Z,151.88
2023-03-22T09:07:31.002Z,157.50
2023-03-22T09:08:30.986Z,157.50
2023-03-22T09:09:30.976Z,168.75
2023-03-22T09:10:30.942Z,185.62
2023-03-22T09:11:30.932Z,196.88
2023-03-22T09:12:30.973Z,208.12
2023-03-22T09:13:30.906Z,236.25
2023-03-22T09:14:30.904Z,213.75
2023-03-22T09:15:30.877Z,202.50
2023-03-22T09:16:30.944Z,219.38
2023-03-22T09:17:30.965Z,191.25
2023-03-22T09:18:30.861Z,185.62
2023-03-22T09:19:30.861Z,180.00
2023-03-22T09:20:30.821Z,196.88
2023-03-22T09:21:30.790Z,180.00
2023-03-22T09:22:30.852Z,208.12
2023-03-22T09:23:30.794Z,174.38
2023-03-22T09:24:30.910Z,163.12
2023-03-22T09:25:30.740Z,157.50
2023-03-22T09:26:30.742Z,151.88
2023-03-22T09:27:30.867Z,151.88
2023-03-22T09:28:30.770Z,151.88
2023-03-22T09:29:30.710Z,151.88
2023-03-22T09:30:30.685Z,168.75
2023-03-22T09:31:30.877Z,157.50
2023-03-22T09:32:30.851Z,185.62
2023-03-22T09:33:30.660Z,191.25
2023-03-22T09:34:30.646Z,191.25
2023-03-22T09:35:30.682Z,185.62
2023-03-22T09:36:30.722Z,168.75
2023-03-22T09:37:30.666Z,196.88
2023-03-22T09:38:30.572Z,213.75
2023-03-22T09:39:30.563Z,208.12
2023-03-22T09:40:30.563Z,185.62
2023-03-22T09:41:30.600Z,185.62
2023-03-22T09:42:30.521Z,191.25
2023-03-22T09:43:33.071Z,196.88
2023-03-22T09:44:30.497Z,219.38
2023-03-22T09:45:30.490Z,241.88
2023-03-22T09:46:30.536Z,225.00
2023-03-22T09:47:42.286Z,241.88
2023-03-22T09:48:31.568Z,247.50
2023-03-22T09:49:30.449Z,258.75
2023-03-22T09:50:30.427Z,253.12
2023-03-22T09:51:30.413Z,253.12
2023-03-22T09:52:30.429Z,253.12
2023-03-22T09:53:30.418Z,253.12
2023-03-22T09:54:30.370Z,219.38
2023-03-22T09:55:30.437Z,253.12
2023-03-22T09:56:30.347Z,253.12
2023-03-22T09:57:30.329Z,264.38
2023-03-22T09:58:30.389Z,247.50
2023-03-22T09:59:30.341Z,236.25
2023-03-22T10:00:31.307Z,213.75
2023-03-22T10:01:30.554Z,264.38
2023-03-22T10:02:30.434Z,264.38
2023-03-22T10:03:30.351Z,264.38
2023-03-22T10:04:30.263Z,258.75
2023-03-22T10:05:30.288Z,258.75
2023-03-22T10:06:30.309Z,247.50
2023-03-22T10:07:30.192Z,225.00
2023-03-22T10:08:30.243Z,258.75
2023-03-22T10:09:31.018Z,281.25
2023-03-22T10:10:30.162Z,236.25
2023-03-22T10:11:30.292Z,230.62
2023-03-22T10:12:30.136Z,219.38
2023-03-22T10:13:30.391Z,219.38
2023-03-22T10:14:30.107Z,219.38
2023-03-22T10:15:30.131Z,236.25
2023-03-22T10:16:30.184Z,286.88
2023-03-22T10:17:30.112Z,309.38
2023-03-22T10:18:30.085Z,309.38
2023-03-22T10:19:30.044Z,292.50
2023-03-22T10:20:30.084Z,270.00
2023-03-22T10:21:30.020Z,258.75
2023-03-22T10:22:30.069Z,264.38
2023-03-22T10:23:30.023Z,230.62
2023-03-22T10:24:29.975Z,185.62
2023-03-22T10:25:29.972Z,196.88
2023-03-22T10:26:29.951Z,213.75
2023-03-22T10:27:29.942Z,270.00
2023-03-22T10:28:29.976Z,303.75
2023-03-22T10:29:29.912Z,309.38
2023-03-22T10:30:29.901Z,326.25
2023-03-22T10:31:29.902Z,241.88
2023-03-22T10:32:29.862Z,241.88
2023-03-22T10:33:30.023Z,337.50
2023-03-22T10:34:29.892Z,247.50
2023-03-22T10:35:29.855Z,230.62
2023-03-22T10:36:29.814Z,230.62
2023-03-22T10:37:30.052Z,326.25
2023-03-22T10:38:29.832Z,315.00
2023-03-22T10:39:29.773Z,303.75
2023-03-22T10:40:29.779Z,230.62
2023-03-22T10:41:29.766Z,320.62
2023-03-22T10:42:29.738Z,303.75
2023-03-22T10:43:29.753Z,292.50
2023-03-22T10:44:29.710Z,253.12
2023-03-22T10:45:29.808Z,264.38
2023-03-22T10:46:29.758Z,270.00
2023-03-22T10:47:29.676Z,247.50
2023-03-22T10:48:29.971Z,286.88
2023-03-22T10:49:29.671Z,315.00
2023-03-22T10:50:29.657Z,315.00
2023-03-22T10:51:29.759Z,298.12
2023-03-22T10:52:29.609Z,281.25
2023-03-22T10:53:29.748Z,230.62
2023-03-22T10:54:29.598Z,230.62
2023-03-22T10:55:29.667Z,275.62
2023-03-22T10:56:29.558Z,292.50
2023-03-22T10:57:29.568Z,298.12
2023-03-22T10:58:29.572Z,298.12
2023-03-22T10:59:29.526Z,303.75
2023-03-22T11:00:29.524Z,309.38
2023-03-22T11:01:29.587Z,315.00
2023-03-22T11:02:29.638Z,303.75
2023-03-22T11:03:29.506Z,281.25
2023-03-22T11:04:29.472Z,286.88
2023-03-22T11:05:29.451Z,286.88
2023-03-22T11:06:29.431Z,292.50
2023-03-22T11:07:29.443Z,298.12
2023-03-22T11:08:29.611Z,309.38
2023-03-22T11:09:29.430Z,309.38
2023-03-22T11:10:29.409Z,320.62
2023-03-22T11:11:29.372Z,320.62
2023-03-22T11:12:29.448Z,286.88
2023-03-22T11:13:30.271Z,320.62
2023-03-22T11:14:29.321Z,326.25
2023-03-22T11:15:29.368Z,275.62
2023-03-22T11:16:29.397Z,258.75
2023-03-22T11:17:29.299Z,320.62
2023-03-22T11:18:29.350Z,326.25
2023-03-22T11:19:29.265Z,326.25
2023-03-22T11:20:30.644Z,331.88
2023-03-22T11:21:29.257Z,326.25
2023-03-22T11:22:29.227Z,320.62
2023-03-22T11:23:29.496Z,315.00
2023-03-22T11:24:29.192Z,337.50
2023-03-22T11:25:29.385Z,343.12
2023-03-22T11:26:29.228Z,343.12
2023-03-22T11:27:29.215Z,348.75
2023-03-22T11:28:29.288Z,331.88
2023-03-22T11:29:32.462Z,320.62
2023-03-22T11:30:29.148Z,309.38
2023-03-22T11:31:29.245Z,309.38
2023-03-22T11:32:29.265Z,292.50
2023-03-22T11:33:29.117Z,281.25
2023-03-22T11:34:29.176Z,275.62
2023-03-22T11:35:29.178Z,264.38
2023-03-22T11:36:29.049Z,258.75
2023-03-22T11:37:29.101Z,253.12
2023-03-22T11:38:29.042Z,275.62
2023-03-22T11:39:29.010Z,264.38
2023-03-22T11:40:28.989Z,270.00
2023-03-22T11:41:28.980Z,292.50
2023-03-22T11:42:28.978Z,298.12
2023-03-22T11:43:28.990Z,281.25
2023-03-22T11:44:28.947Z,292.50
2023-03-22T11:45:28.944Z,286.88
2023-03-22T11:46:28.962Z,286.88
2023-03-22T11:47:28.941Z,298.12
2023-03-22T11:48:28.986Z,298.12
2023-03-22T11:49:28.874Z,292.50
2023-03-22T11:50:28.855Z,298.12
2023-03-22T11:51:28.854Z,303.75
2023-03-22T11:52:28.854Z,286.88
2023-03-22T11:53:28.914Z,298.12
2023-03-22T11:54:28.865Z,315.00
2023-03-22T11:55:29.737Z,320.62
2023-03-22T11:56:28.787Z,320.62
2023-03-22T11:57:28.774Z,320.62
2023-03-22T11:58:28.801Z,315.00
2023-03-22T11:59:28.763Z,298.12
2023-03-22T12:00:28.729Z,303.75
2023-03-22T12:01:28.905Z,292.50
2023-03-22T12:02:28.839Z,286.88
2023-03-22T12:03:28.816Z,258.75
2023-03-22T12:04:28.797Z,292.50
2023-03-22T12:05:28.773Z,281.25
2023-03-22T12:06:28.885Z,286.88
2023-03-22T12:07:28.673Z,253.12
2023-03-22T12:08:28.666Z,264.38
2023-03-22T12:09:28.664Z,258.75
2023-03-22T12:10:28.598Z,275.62
2023-03-22T12:11:28.717Z,241.88
2023-03-22T12:12:28.604Z,241.88
2023-03-22T12:13:28.725Z,236.25
2023-03-22T12:14:28.596Z,264.38
2023-03-22T12:15:28.609Z,241.88
2023-03-22T12:16:28.606Z,247.50
2023-03-22T12:17:28.594Z,230.62
2023-03-22T12:18:28.563Z,230.62
2023-03-22T12:19:28.488Z,230.62
2023-03-22T12:20:28.549Z,213.75
2023-03-22T12:21:28.465Z,202.50
2023-03-22T12:22:28.454Z,191.25
2023-03-22T12:23:28.469Z,202.50
2023-03-22T12:24:28.451Z,202.50
2023-03-22T12:25:29.129Z,202.50
2023-03-22T12:26:28.409Z,219.38
2023-03-22T12:27:28.474Z,241.88
2023-03-22T12:28:28.415Z,253.12
2023-03-22T12:29:28.369Z,253.12
2023-03-22T12:30:29.041Z,230.62
2023-03-22T12:31:28.474Z,230.62
2023-03-22T12:32:28.496Z,230.62
2023-03-22T12:33:28.340Z,241.88
2023-03-22T12:34:28.940Z,241.88
2023-03-22T12:35:28.281Z,253.12
2023-03-22T12:36:28.322Z,241.88
2023-03-22T12:37:29.640Z,253.12
2023-03-22T12:38:28.286Z,241.88
2023-03-22T12:39:28.231Z,247.50
2023-03-22T12:40:28.225Z,253.12
2023-03-22T12:41:28.208Z,253.12
2023-03-22T12:42:29.161Z,253.12
2023-03-22T12:43:28.208Z,253.12
2023-03-22T12:44:28.281Z,241.88
2023-03-22T12:45:28.210Z,236.25
2023-03-22T12:46:28.172Z,236.25
2023-03-22T12:47:28.199Z,241.88
2023-03-22T12:48:29.167Z,247.50
2023-03-22T12:49:28.118Z,258.75
2023-03-22T12:50:28.112Z,258.75
2023-03-22T12:51:28.761Z,236.25